This is the latest recevied weather packets stored in our database for station/object DK6GC-10. If no packets are shown the sender has not sent any weather packets the latest 10 day(s).
| Time | Temp. | Humidity | Pressure | Rain* | Wind** | Luminosity | Snow |
|---|---|---|---|---|---|---|---|
| 1777370592 | 20.56° C | 39% | 1016.7 hPa | - | - | - | - |
| 1777369692 | 20.56° C | 42% | 1016.9 hPa | - | - | - | - |
| 1777368791 | 20° C | 44% | 1016.8 hPa | - | - | - | - |
| 1777367895 | 18.89° C | 44% | 1016.9 hPa | - | - | - | - |
| 1777366995 | 18.33° C | 44% | 1016.9 hPa | - | - | - | - |
| 1777366095 | 18.33° C | 44% | 1016.9 hPa | - | - | - | - |
| 1777365194 | 18.89° C | 45% | 1017 hPa | - | - | - | - |
| 1777364294 | 17.78° C | 49% | 1017.1 hPa | - | - | - | - |
| 1777363394 | 17.22° C | 51% | 1017.2 hPa | - | - | - | - |
| 1777362494 | 16.11° C | 51% | 1017.1 hPa | - | - | - | - |
| 1777361594 | 15.56° C | 52% | 1017.2 hPa | - | - | - | - |
| 1777360694 | 13.89° C | 56% | 1017.2 hPa | - | - | - | - |
| 1777359793 | 13.33° C | 58% | 1017.2 hPa | - | - | - | - |
| 1777358893 | 13.89° C | 54% | 1017.2 hPa | - | - | - | - |
| 1777357993 | 16.11° C | 49% | 1017.3 hPa | - | - | - | - |
| 1777357093 | 16.11° C | 49% | 1017.3 hPa | - | - | - | - |
| 1777356193 | 16.67° C | 50% | 1017.3 hPa | - | - | - | - |
| 1777355292 | 12.78° C | 60% | 1017.3 hPa | - | - | - | - |
| 1777354392 | 12.22° C | 59% | 1017.3 hPa | - | - | - | - |
| 1777353492 | 11.67° C | 66% | 1016.9 hPa | - | - | - | - |
| 1777352592 | 7.22° C | 78% | 1017.1 hPa | - | - | - | - |
| 1777351692 | 6.67° C | 79% | 1017.1 hPa | - | - | - | - |
| 1777350792 | 6.67° C | 79% | 1016.9 hPa | - | - | - | - |
| 1777349891 | 6.67° C | 80% | 1016.9 hPa | - | - | - | - |
| 1777348991 | 6.67° C | 78% | 1016.9 hPa | - | - | - | - |
* Rain since midnight (hover to see other rain measurements)
** Current wind speed in m/s (hover to see current wind gust speed)